HAZ2930 ZYCC-ZSHC
Flight info
| Callsign | HAZ2930 |
|---|---|
| Flight time | 2h 40m |
| Altitude | 34100 |
| Route | LEMOT A588 BIDIB A345 DDG DCT DONVO A326 IKADI W113 SOSMA W108 MATNU W115 PINOT B221 SUPAR W505 DSH |
| Aircraft | A20N/M-SDE2E3FGHIRWXY/LB1 |
Departure
| Time | 2026-05-07 09:57 |
|---|---|
| Airport | Changchun Longjia International Airport (ZYCC) |
Arrival
| Time | 2026-05-07 12:37 |
|---|---|
| Airport | Hangzhou Xiaoshan International Airport (ZSHC) |
| Time | Latitude | Longitude | Altitude | Speed | Heading |
|---|---|---|---|---|---|
| 2026-05-07 09:26 | 43.99565 | 125.69276 | 715 ft | 0 kts | 139° |
| 2026-05-07 09:44 | 43.99566 | 125.69275 | 715 ft | 1 kts | 140° |
| 2026-05-07 09:44 | 43.99576 | 125.69262 | 715 ft | 2 kts | 138° |
| 2026-05-07 09:44 | 43.99588 | 125.69248 | 715 ft | 2 kts | 140° |
| 2026-05-07 09:45 | 43.99599 | 125.69235 | 715 ft | 2 kts | 139° |
| 2026-05-07 09:45 | 43.99607 | 125.69224 | 715 ft | 0 kts | 139° |
| 2026-05-07 09:45 | 43.99616 | 125.69212 | 715 ft | 1 kts | 117° |
| 2026-05-07 09:45 | 43.99619 | 125.69200 | 715 ft | 2 kts | 102° |
| 2026-05-07 09:46 | 43.99618 | 125.69175 | 715 ft | 2 kts | 69° |
| 2026-05-07 09:46 | 43.99614 | 125.69163 | 715 ft | 0 kts | 52° |
| 2026-05-07 09:46 | 43.99609 | 125.69155 | 715 ft | 0 kts | 49° |
| 2026-05-07 09:51 | 43.99610 | 125.69156 | 715 ft | 0 kts | 49° |
| 2026-05-07 09:51 | 43.99616 | 125.69166 | 715 ft | 2 kts | 47° |
| 2026-05-07 09:51 | 43.99638 | 125.69199 | 715 ft | 7 kts | 49° |
| 2026-05-07 09:52 | 43.99690 | 125.69283 | 715 ft | 15 kts | 49° |
| 2026-05-07 09:52 | 43.99765 | 125.69404 | 715 ft | 16 kts | 47° |
| 2026-05-07 09:52 | 43.99849 | 125.69542 | 715 ft | 12 kts | 50° |
| 2026-05-07 09:52 | 43.99912 | 125.69642 | 715 ft | 16 kts | 48° |
| 2026-05-07 09:53 | 43.99987 | 125.69763 | 715 ft | 12 kts | 49° |
| 2026-05-07 09:53 | 44.00059 | 125.69770 | 715 ft | 13 kts | 322° |
| 2026-05-07 09:53 | 44.00148 | 125.69718 | 715 ft | 17 kts | 28° |
| 2026-05-07 09:53 | 44.00239 | 125.69862 | 715 ft | 22 kts | 48° |
| 2026-05-07 09:54 | 44.00349 | 125.70042 | 715 ft | 26 kts | 50° |
| 2026-05-07 09:54 | 44.00401 | 125.70123 | 715 ft | 8 kts | 50° |
| 2026-05-07 09:54 | 44.00477 | 125.70126 | 715 ft | 0 kts | 318° |
| 2026-05-07 09:55 | 44.00536 | 125.69970 | 715 ft | 0 kts | 226° |
| 2026-05-07 09:56 | 44.00503 | 125.69923 | 715 ft | 27 kts | 227° |
| 2026-05-07 09:56 | 44.00207 | 125.69452 | 715 ft | 99 kts | 230° |
| 2026-05-07 09:56 | 43.99631 | 125.68523 | 716 ft | 154 kts | 228° |
| 2026-05-07 09:56 | 43.98881 | 125.67361 | 1117 ft | 165 kts | 227° |
| 2026-05-07 09:57 | 43.98076 | 125.66142 | 1602 ft | 178 kts | 228° |
| 2026-05-07 09:57 | 43.97261 | 125.64877 | 2268 ft | 178 kts | 233° |
| 2026-05-07 09:57 | 43.96464 | 125.63571 | 2870 ft | 180 kts | 234° |
| 2026-05-07 09:57 | 43.95631 | 125.62185 | 3234 ft | 196 kts | 236° |
| 2026-05-07 09:58 | 43.94720 | 125.60676 | 3615 ft | 212 kts | 235° |
| 2026-05-07 09:58 | 43.93731 | 125.59054 | 4008 ft | 229 kts | 234° |
| 2026-05-07 09:58 | 43.92649 | 125.57294 | 4349 ft | 252 kts | 234° |
| 2026-05-07 09:58 | 43.91502 | 125.55458 | 5182 ft | 252 kts | 233° |
| 2026-05-07 09:59 | 43.90366 | 125.53650 | 6022 ft | 252 kts | 233° |
| 2026-05-07 09:59 | 43.89212 | 125.51807 | 6838 ft | 254 kts | 233° |
| 2026-05-07 09:59 | 43.88065 | 125.49973 | 7654 ft | 255 kts | 233° |
| 2026-05-07 09:59 | 43.86910 | 125.48127 | 8459 ft | 257 kts | 233° |
| 2026-05-07 10:00 | 43.85746 | 125.46267 | 9245 ft | 259 kts | 233° |
| 2026-05-07 10:00 | 43.84564 | 125.44382 | 10022 ft | 261 kts | 233° |
| 2026-05-07 10:00 | 43.83387 | 125.42503 | 10779 ft | 263 kts | 232° |
| 2026-05-07 10:00 | 43.82180 | 125.40576 | 11559 ft | 265 kts | 232° |
| 2026-05-07 10:01 | 43.80995 | 125.38686 | 12316 ft | 266 kts | 232° |
| 2026-05-07 10:01 | 43.79682 | 125.36877 | 13052 ft | 270 kts | 214° |
| 2026-05-07 10:01 | 43.77916 | 125.36067 | 13763 ft | 274 kts | 182° |
| 2026-05-07 10:01 | 43.76070 | 125.36552 | 14506 ft | 275 kts | 159° |
| 2026-05-07 10:02 | 43.74304 | 125.37598 | 15252 ft | 276 kts | 158° |
| 2026-05-07 10:02 | 43.72552 | 125.38625 | 15973 ft | 277 kts | 159° |
| 2026-05-07 10:02 | 43.70768 | 125.39654 | 16693 ft | 278 kts | 159° |
| 2026-05-07 10:02 | 43.68995 | 125.40665 | 17407 ft | 278 kts | 160° |
| 2026-05-07 10:03 | 43.67218 | 125.41668 | 18109 ft | 279 kts | 160° |
| 2026-05-07 10:03 | 43.65418 | 125.42680 | 18795 ft | 280 kts | 160° |
| 2026-05-07 10:03 | 43.63629 | 125.43686 | 19453 ft | 281 kts | 160° |
| 2026-05-07 10:03 | 43.61807 | 125.44708 | 20064 ft | 284 kts | 160° |
| 2026-05-07 10:04 | 43.59974 | 125.45736 | 20654 ft | 287 kts | 160° |
| 2026-05-07 10:04 | 43.58123 | 125.46771 | 21224 ft | 290 kts | 161° |
| 2026-05-07 10:04 | 43.56252 | 125.47817 | 21790 ft | 294 kts | 160° |
| 2026-05-07 10:04 | 43.54346 | 125.48884 | 22358 ft | 296 kts | 161° |
| 2026-05-07 10:05 | 43.52452 | 125.49940 | 22901 ft | 299 kts | 161° |
| 2026-05-07 10:05 | 43.50503 | 125.51027 | 23430 ft | 302 kts | 161° |
| 2026-05-07 10:05 | 43.48560 | 125.52112 | 23933 ft | 306 kts | 161° |
| 2026-05-07 10:05 | 43.46547 | 125.53110 | 24408 ft | 306 kts | 173° |
| 2026-05-07 10:06 | 43.44444 | 125.53096 | 24795 ft | 304 kts | 197° |
| 2026-05-07 10:06 | 43.42481 | 125.51985 | 25022 ft | 311 kts | 210° |
| 2026-05-07 10:06 | 43.40534 | 125.50571 | 25238 ft | 322 kts | 210° |
| 2026-05-07 10:06 | 43.38548 | 125.49146 | 25436 ft | 333 kts | 210° |
| 2026-05-07 10:07 | 43.36449 | 125.47651 | 25630 ft | 343 kts | 210° |
| 2026-05-07 10:07 | 43.34293 | 125.46121 | 25828 ft | 353 kts | 209° |
| 2026-05-07 10:07 | 43.32091 | 125.44563 | 25991 ft | 363 kts | 210° |
| 2026-05-07 10:07 | 43.29802 | 125.42947 | 26156 ft | 373 kts | 210° |
| 2026-05-07 10:08 | 43.27495 | 125.41319 | 26319 ft | 382 kts | 210° |
| 2026-05-07 10:08 | 43.25104 | 125.39636 | 26475 ft | 390 kts | 210° |
| 2026-05-07 10:08 | 43.22658 | 125.37915 | 26628 ft | 399 kts | 210° |
| 2026-05-07 10:08 | 43.20168 | 125.36166 | 26772 ft | 407 kts | 210° |
| 2026-05-07 10:09 | 43.17644 | 125.34393 | 26902 ft | 414 kts | 209° |
| 2026-05-07 10:09 | 43.15059 | 125.32581 | 27020 ft | 422 kts | 209° |
| 2026-05-07 10:09 | 43.12452 | 125.30754 | 27145 ft | 429 kts | 209° |
| 2026-05-07 10:09 | 43.09739 | 125.28856 | 27299 ft | 434 kts | 209° |
| 2026-05-07 10:10 | 43.07049 | 125.26976 | 27551 ft | 436 kts | 209° |
| 2026-05-07 10:10 | 43.04375 | 125.25110 | 27853 ft | 437 kts | 209° |
| 2026-05-07 10:10 | 43.01670 | 125.23224 | 28213 ft | 435 kts | 209° |
| 2026-05-07 10:10 | 42.98974 | 125.21346 | 28594 ft | 434 kts | 209° |
| 2026-05-07 10:11 | 42.96211 | 125.19725 | 28951 ft | 435 kts | 202° |
| 2026-05-07 10:11 | 42.93292 | 125.18616 | 29289 ft | 436 kts | 195° |
| 2026-05-07 10:11 | 42.90301 | 125.18027 | 29632 ft | 438 kts | 189° |
| 2026-05-07 10:11 | 42.87274 | 125.17687 | 29949 ft | 437 kts | 188° |
| 2026-05-07 10:12 | 42.84278 | 125.17246 | 30220 ft | 433 kts | 193° |
| 2026-05-07 10:12 | 42.81340 | 125.16393 | 30490 ft | 429 kts | 199° |
| 2026-05-07 10:12 | 42.78527 | 125.15154 | 30711 ft | 425 kts | 205° |
| 2026-05-07 10:12 | 42.75829 | 125.13538 | 30944 ft | 422 kts | 210° |
| 2026-05-07 10:13 | 42.73199 | 125.11731 | 31145 ft | 422 kts | 211° |
| 2026-05-07 10:13 | 42.70604 | 125.09920 | 31384 ft | 422 kts | 211° |
| 2026-05-07 10:13 | 42.67993 | 125.08093 | 31623 ft | 422 kts | 211° |
| 2026-05-07 10:13 | 42.65405 | 125.06284 | 31826 ft | 422 kts | 211° |
| 2026-05-07 10:14 | 42.62772 | 125.04445 | 32046 ft | 422 kts | 211° |
| 2026-05-07 10:14 | 42.60197 | 125.02650 | 32247 ft | 422 kts | 211° |
| 2026-05-07 10:14 | 42.57594 | 125.00836 | 32423 ft | 423 kts | 211° |
| 2026-05-07 10:14 | 42.54959 | 124.99002 | 32614 ft | 423 kts | 212° |
| 2026-05-07 10:15 | 42.52342 | 124.97185 | 32783 ft | 423 kts | 212° |
| 2026-05-07 10:15 | 42.49746 | 124.95381 | 32921 ft | 425 kts | 212° |
| 2026-05-07 10:15 | 42.47122 | 124.93561 | 33065 ft | 426 kts | 212° |
| 2026-05-07 10:15 | 42.44474 | 124.91728 | 33210 ft | 427 kts | 212° |
| 2026-05-07 10:16 | 42.41850 | 124.89911 | 33361 ft | 427 kts | 212° |
| 2026-05-07 10:16 | 42.39187 | 124.88068 | 33540 ft | 427 kts | 212° |
| 2026-05-07 10:16 | 42.36541 | 124.86240 | 33699 ft | 428 kts | 212° |
| 2026-05-07 10:16 | 42.33900 | 124.84415 | 33838 ft | 429 kts | 212° |
| 2026-05-07 10:17 | 42.31253 | 124.82591 | 33963 ft | 430 kts | 212° |
| 2026-05-07 10:17 | 42.25915 | 124.78915 | 33979 ft | 430 kts | 212° |
| 2026-05-07 10:18 | 42.20582 | 124.75250 | 33974 ft | 431 kts | 212° |
| 2026-05-07 10:18 | 42.15273 | 124.71610 | 33975 ft | 432 kts | 212° |
| 2026-05-07 10:19 | 42.09918 | 124.67944 | 33982 ft | 432 kts | 212° |
| 2026-05-07 10:19 | 42.04561 | 124.64286 | 33985 ft | 431 kts | 212° |
| 2026-05-07 10:20 | 41.99249 | 124.60661 | 33991 ft | 431 kts | 213° |
| 2026-05-07 10:20 | 41.94027 | 124.56747 | 33993 ft | 428 kts | 215° |
| 2026-05-07 10:21 | 41.88868 | 124.52814 | 33994 ft | 429 kts | 215° |
| 2026-05-07 10:21 | 41.83689 | 124.48872 | 33995 ft | 427 kts | 215° |
| 2026-05-07 10:22 | 41.78546 | 124.44958 | 34004 ft | 427 kts | 215° |
| 2026-05-07 10:22 | 41.73360 | 124.41020 | 34012 ft | 426 kts | 215° |
| 2026-05-07 10:23 | 41.68245 | 124.37138 | 34016 ft | 426 kts | 215° |
| 2026-05-07 10:23 | 41.63065 | 124.33220 | 34017 ft | 427 kts | 214° |
| 2026-05-07 10:24 | 41.57910 | 124.29324 | 34018 ft | 427 kts | 214° |
| 2026-05-07 10:24 | 41.52734 | 124.25419 | 34014 ft | 427 kts | 214° |
| 2026-05-07 10:25 | 41.47518 | 124.21658 | 34018 ft | 430 kts | 210° |
| 2026-05-07 10:25 | 41.41855 | 124.18887 | 34022 ft | 438 kts | 201° |
| 2026-05-07 10:26 | 41.35844 | 124.17399 | 34021 ft | 447 kts | 192° |
| 2026-05-07 10:26 | 41.29569 | 124.17278 | 34020 ft | 455 kts | 184° |
| 2026-05-07 10:27 | 41.23246 | 124.17786 | 34015 ft | 455 kts | 184° |
| 2026-05-07 10:27 | 41.16965 | 124.18333 | 34018 ft | 454 kts | 184° |
| 2026-05-07 10:28 | 41.10668 | 124.18871 | 34012 ft | 454 kts | 184° |
| 2026-05-07 10:28 | 41.04406 | 124.19401 | 34016 ft | 454 kts | 184° |
| 2026-05-07 10:29 | 40.98106 | 124.20093 | 34024 ft | 455 kts | 182° |
| 2026-05-07 10:29 | 40.91817 | 124.20832 | 34030 ft | 453 kts | 182° |
| 2026-05-07 10:30 | 40.82354 | 124.21922 | 34027 ft | 454 kts | 183° |
| 2026-05-07 10:30 | 40.76074 | 124.22640 | 34033 ft | 453 kts | 183° |
| 2026-05-07 10:31 | 40.69805 | 124.23355 | 34033 ft | 451 kts | 183° |
| 2026-05-07 10:31 | 40.63547 | 124.24066 | 34028 ft | 451 kts | 184° |
| 2026-05-07 10:32 | 40.57361 | 124.24767 | 34027 ft | 447 kts | 184° |
| 2026-05-07 10:32 | 40.51142 | 124.25469 | 34031 ft | 449 kts | 184° |
| 2026-05-07 10:33 | 40.44946 | 124.26166 | 34017 ft | 449 kts | 184° |
| 2026-05-07 10:33 | 40.38733 | 124.26868 | 34033 ft | 447 kts | 184° |
| 2026-05-07 10:34 | 40.32540 | 124.27415 | 34029 ft | 443 kts | 188° |
| 2026-05-07 10:34 | 40.26466 | 124.27185 | 34034 ft | 433 kts | 193° |
| 2026-05-07 10:35 | 40.20581 | 124.26151 | 34026 ft | 426 kts | 199° |
| 2026-05-07 10:35 | 40.14887 | 124.24367 | 34022 ft | 418 kts | 204° |
| 2026-05-07 10:36 | 40.09281 | 124.22320 | 34012 ft | 418 kts | 204° |
| 2026-05-07 10:36 | 40.03699 | 124.20288 | 34015 ft | 418 kts | 204° |
| 2026-05-07 10:37 | 39.98117 | 124.18258 | 34009 ft | 415 kts | 204° |
| 2026-05-07 10:37 | 39.92530 | 124.16225 | 34011 ft | 417 kts | 204° |
| 2026-05-07 10:38 | 39.86946 | 124.14195 | 34015 ft | 416 kts | 204° |
| 2026-05-07 10:38 | 39.81388 | 124.12180 | 34018 ft | 415 kts | 204° |
| 2026-05-07 10:39 | 39.75836 | 124.10169 | 34026 ft | 415 kts | 204° |
| 2026-05-07 10:39 | 39.70322 | 124.08176 | 34030 ft | 413 kts | 205° |
| 2026-05-07 10:40 | 39.64768 | 124.06172 | 34034 ft | 413 kts | 205° |
| 2026-05-07 10:40 | 39.59248 | 124.04179 | 34044 ft | 410 kts | 205° |
| 2026-05-07 10:41 | 39.53772 | 124.02214 | 34034 ft | 410 kts | 205° |
| 2026-05-07 10:41 | 39.48279 | 124.00238 | 34039 ft | 409 kts | 205° |
| 2026-05-07 10:42 | 39.42807 | 123.98276 | 34036 ft | 410 kts | 205° |
| 2026-05-07 10:42 | 39.37351 | 123.96320 | 34041 ft | 408 kts | 205° |
| 2026-05-07 10:43 | 39.31868 | 123.94366 | 34059 ft | 408 kts | 205° |
| 2026-05-07 10:43 | 39.26433 | 123.92428 | 34043 ft | 408 kts | 205° |
| 2026-05-07 10:44 | 39.20943 | 123.90470 | 34055 ft | 407 kts | 206° |
| 2026-05-07 10:44 | 39.15500 | 123.88534 | 34046 ft | 407 kts | 206° |
| 2026-05-07 10:45 | 39.10061 | 123.86602 | 34053 ft | 404 kts | 206° |
| 2026-05-07 10:45 | 39.04619 | 123.84673 | 34045 ft | 405 kts | 206° |
| 2026-05-07 10:46 | 38.99175 | 123.82744 | 34017 ft | 405 kts | 206° |
| 2026-05-07 10:46 | 38.93742 | 123.80821 | 34057 ft | 405 kts | 207° |
| 2026-05-07 10:47 | 38.88332 | 123.78915 | 34030 ft | 404 kts | 206° |
| 2026-05-07 10:47 | 38.82921 | 123.77007 | 34045 ft | 404 kts | 207° |
| 2026-05-07 10:48 | 38.77541 | 123.75119 | 34060 ft | 402 kts | 207° |
| 2026-05-07 10:48 | 38.72137 | 123.73221 | 34054 ft | 402 kts | 207° |
| 2026-05-07 10:49 | 38.66717 | 123.71323 | 34056 ft | 402 kts | 207° |
| 2026-05-07 10:49 | 38.61351 | 123.69445 | 34058 ft | 400 kts | 207° |
| 2026-05-07 10:50 | 38.55995 | 123.67575 | 34049 ft | 402 kts | 207° |
| 2026-05-07 10:50 | 38.50600 | 123.65691 | 34056 ft | 400 kts | 207° |
| 2026-05-07 10:51 | 38.45216 | 123.63813 | 34063 ft | 402 kts | 208° |
| 2026-05-07 10:51 | 38.39815 | 123.61933 | 34068 ft | 402 kts | 208° |
| 2026-05-07 10:52 | 38.34441 | 123.60066 | 34080 ft | 399 kts | 208° |
| 2026-05-07 10:52 | 38.29116 | 123.58220 | 34080 ft | 399 kts | 208° |
| 2026-05-07 10:53 | 38.23758 | 123.56361 | 34077 ft | 396 kts | 208° |
| 2026-05-07 10:53 | 38.18420 | 123.54514 | 34078 ft | 397 kts | 208° |
| 2026-05-07 10:54 | 38.13106 | 123.52683 | 34082 ft | 394 kts | 208° |
| 2026-05-07 10:54 | 38.07833 | 123.50863 | 34086 ft | 396 kts | 209° |
| 2026-05-07 10:55 | 38.02538 | 123.49040 | 34092 ft | 394 kts | 209° |
| 2026-05-07 10:55 | 37.97219 | 123.47214 | 34092 ft | 396 kts | 208° |
| 2026-05-07 10:56 | 37.91899 | 123.45383 | 34098 ft | 395 kts | 208° |
| 2026-05-07 10:56 | 37.86592 | 123.43564 | 34092 ft | 395 kts | 209° |
| 2026-05-07 10:57 | 37.81294 | 123.41749 | 34096 ft | 398 kts | 209° |
| 2026-05-07 10:57 | 37.75970 | 123.39922 | 34098 ft | 397 kts | 209° |
| 2026-05-07 10:58 | 37.70586 | 123.38087 | 34095 ft | 400 kts | 209° |
| 2026-05-07 10:58 | 37.65243 | 123.36269 | 34095 ft | 400 kts | 209° |
| 2026-05-07 10:59 | 37.59745 | 123.34725 | 34104 ft | 409 kts | 204° |
| 2026-05-07 10:59 | 37.54003 | 123.33820 | 34098 ft | 420 kts | 199° |
| 2026-05-07 11:00 | 37.48090 | 123.33609 | 34103 ft | 433 kts | 193° |
| 2026-05-07 11:00 | 37.42065 | 123.33775 | 34098 ft | 433 kts | 194° |
| 2026-05-07 11:01 | 37.36046 | 123.33941 | 34096 ft | 433 kts | 194° |
| 2026-05-07 11:01 | 37.30001 | 123.34102 | 34096 ft | 438 kts | 193° |
| 2026-05-07 11:02 | 37.23886 | 123.34273 | 34105 ft | 438 kts | 193° |
| 2026-05-07 11:02 | 37.17829 | 123.34447 | 34102 ft | 436 kts | 193° |
| 2026-05-07 11:03 | 37.11745 | 123.34619 | 34109 ft | 437 kts | 193° |
| 2026-05-07 11:03 | 37.05703 | 123.34789 | 34104 ft | 435 kts | 193° |
| 2026-05-07 11:04 | 36.99631 | 123.34959 | 34107 ft | 437 kts | 193° |
| 2026-05-07 11:04 | 36.93605 | 123.35126 | 34098 ft | 434 kts | 193° |
| 2026-05-07 11:05 | 36.87554 | 123.35296 | 34096 ft | 438 kts | 193° |
| 2026-05-07 11:05 | 36.81441 | 123.35468 | 34098 ft | 440 kts | 193° |
| 2026-05-07 11:06 | 36.75312 | 123.35634 | 34099 ft | 442 kts | 193° |
| 2026-05-07 11:06 | 36.69170 | 123.35803 | 34098 ft | 442 kts | 193° |
| 2026-05-07 11:07 | 36.63016 | 123.35978 | 34102 ft | 442 kts | 193° |
| 2026-05-07 11:07 | 36.56853 | 123.36147 | 34103 ft | 441 kts | 192° |
| 2026-05-07 11:08 | 36.50729 | 123.36324 | 34105 ft | 444 kts | 193° |
| 2026-05-07 11:08 | 36.44537 | 123.36492 | 34186 ft | 443 kts | 192° |
| 2026-05-07 11:09 | 36.38386 | 123.36665 | 34121 ft | 444 kts | 192° |
| 2026-05-07 11:09 | 36.32174 | 123.36842 | 34112 ft | 446 kts | 192° |
| 2026-05-07 11:10 | 36.26011 | 123.37019 | 34120 ft | 444 kts | 192° |
| 2026-05-07 11:10 | 36.19786 | 123.37192 | 34122 ft | 446 kts | 192° |
| 2026-05-07 11:11 | 36.13620 | 123.37367 | 34125 ft | 446 kts | 192° |
| 2026-05-07 11:11 | 36.07380 | 123.37540 | 34124 ft | 448 kts | 192° |
| 2026-05-07 11:12 | 36.01185 | 123.37713 | 34133 ft | 446 kts | 192° |
| 2026-05-07 11:12 | 35.94964 | 123.37891 | 34135 ft | 447 kts | 191° |
| 2026-05-07 11:13 | 35.88770 | 123.38064 | 34137 ft | 446 kts | 191° |
| 2026-05-07 11:13 | 35.82533 | 123.38236 | 34134 ft | 448 kts | 191° |
| 2026-05-07 11:14 | 35.76346 | 123.38412 | 34131 ft | 448 kts | 191° |
| 2026-05-07 11:14 | 35.70097 | 123.38586 | 34126 ft | 449 kts | 191° |
| 2026-05-07 11:15 | 35.63851 | 123.38761 | 34132 ft | 450 kts | 190° |
| 2026-05-07 11:15 | 35.57612 | 123.38932 | 34127 ft | 449 kts | 190° |
| 2026-05-07 11:16 | 35.51362 | 123.39109 | 34129 ft | 451 kts | 190° |
| 2026-05-07 11:16 | 35.45090 | 123.39284 | 34133 ft | 450 kts | 190° |
| 2026-05-07 11:17 | 35.38808 | 123.39457 | 34131 ft | 450 kts | 190° |
| 2026-05-07 11:17 | 35.32549 | 123.39630 | 34134 ft | 453 kts | 189° |
| 2026-05-07 11:18 | 35.26223 | 123.39806 | 34130 ft | 454 kts | 189° |
| 2026-05-07 11:18 | 35.19938 | 123.39980 | 34134 ft | 455 kts | 189° |
| 2026-05-07 11:19 | 35.13627 | 123.40158 | 34131 ft | 453 kts | 189° |
| 2026-05-07 11:19 | 35.07306 | 123.40332 | 34134 ft | 454 kts | 189° |
| 2026-05-07 11:20 | 35.00961 | 123.40509 | 34138 ft | 456 kts | 188° |
| 2026-05-07 11:20 | 34.94643 | 123.40991 | 34138 ft | 458 kts | 186° |
| 2026-05-07 11:21 | 34.88251 | 123.41533 | 34139 ft | 458 kts | 186° |
| 2026-05-07 11:21 | 34.81918 | 123.42072 | 34137 ft | 458 kts | 186° |
| 2026-05-07 11:22 | 34.75561 | 123.42617 | 34134 ft | 459 kts | 185° |
| 2026-05-07 11:22 | 34.69186 | 123.43172 | 34130 ft | 460 kts | 185° |
| 2026-05-07 11:23 | 34.62815 | 123.43725 | 34125 ft | 459 kts | 185° |
| 2026-05-07 11:23 | 34.56473 | 123.44274 | 34115 ft | 458 kts | 185° |
| 2026-05-07 11:24 | 34.50113 | 123.44821 | 34112 ft | 458 kts | 185° |
| 2026-05-07 11:24 | 34.43766 | 123.45371 | 34113 ft | 456 kts | 185° |
| 2026-05-07 11:25 | 34.37441 | 123.45914 | 34110 ft | 458 kts | 185° |
| 2026-05-07 11:25 | 34.31076 | 123.46462 | 34116 ft | 459 kts | 185° |
| 2026-05-07 11:26 | 34.24714 | 123.47011 | 34115 ft | 458 kts | 185° |
| 2026-05-07 11:26 | 34.18408 | 123.47192 | 34107 ft | 442 kts | 197° |
| 2026-05-07 11:27 | 34.15469 | 123.46305 | 34117 ft | 429 kts | 208° |
| 2026-05-07 11:27 | 34.12837 | 123.44743 | 34119 ft | 418 kts | 219° |
| 2026-05-07 11:27 | 34.08722 | 123.40046 | 34118 ft | 403 kts | 239° |
| 2026-05-07 11:28 | 34.06455 | 123.34055 | 34120 ft | 395 kts | 257° |
| 2026-05-07 11:28 | 34.05135 | 123.27615 | 34126 ft | 396 kts | 257° |
| 2026-05-07 11:29 | 34.03843 | 123.21181 | 34127 ft | 396 kts | 257° |
| 2026-05-07 11:29 | 34.02559 | 123.14755 | 34127 ft | 396 kts | 258° |
| 2026-05-07 11:30 | 34.01276 | 123.08321 | 34131 ft | 396 kts | 258° |
| 2026-05-07 11:30 | 33.99999 | 123.01906 | 34130 ft | 396 kts | 258° |
| 2026-05-07 11:31 | 33.98716 | 122.95470 | 34127 ft | 397 kts | 258° |
| 2026-05-07 11:31 | 33.97427 | 122.89027 | 34126 ft | 398 kts | 258° |
| 2026-05-07 11:32 | 33.95478 | 122.79330 | 34128 ft | 397 kts | 258° |
| 2026-05-07 11:33 | 33.94168 | 122.72852 | 34133 ft | 399 kts | 258° |
| 2026-05-07 11:33 | 33.92867 | 122.66417 | 34130 ft | 399 kts | 258° |
| 2026-05-07 11:34 | 33.91546 | 122.59913 | 34130 ft | 399 kts | 258° |
| 2026-05-07 11:34 | 33.90232 | 122.53458 | 34135 ft | 399 kts | 258° |
| 2026-05-07 11:35 | 33.88916 | 122.47005 | 34136 ft | 399 kts | 258° |
| 2026-05-07 11:35 | 33.87591 | 122.40536 | 34138 ft | 399 kts | 258° |
| 2026-05-07 11:36 | 33.86270 | 122.34094 | 34140 ft | 399 kts | 257° |
| 2026-05-07 11:36 | 33.84930 | 122.27597 | 34139 ft | 399 kts | 257° |
| 2026-05-07 11:37 | 33.83594 | 122.21118 | 34140 ft | 399 kts | 257° |
| 2026-05-07 11:37 | 33.82264 | 122.14692 | 34141 ft | 399 kts | 258° |
| 2026-05-07 11:38 | 33.80916 | 122.08200 | 34144 ft | 399 kts | 258° |
| 2026-05-07 11:38 | 33.79581 | 122.01777 | 34145 ft | 398 kts | 257° |
| 2026-05-07 11:39 | 33.78233 | 121.95327 | 34146 ft | 397 kts | 258° |
| 2026-05-07 11:39 | 33.76893 | 121.88914 | 34147 ft | 397 kts | 258° |
| 2026-05-07 11:40 | 33.75536 | 121.82470 | 34147 ft | 398 kts | 258° |
| 2026-05-07 11:40 | 33.73840 | 121.76192 | 34135 ft | 405 kts | 244° |
| 2026-05-07 11:40 | 33.72131 | 121.73467 | 34144 ft | 415 kts | 231° |
| 2026-05-07 11:41 | 33.69841 | 121.71282 | 34144 ft | 427 kts | 218° |
| 2026-05-07 11:41 | 33.67061 | 121.69824 | 34145 ft | 443 kts | 204° |
| 2026-05-07 11:41 | 33.63958 | 121.69291 | 34144 ft | 462 kts | 188° |
| 2026-05-07 11:41 | 33.60731 | 121.69834 | 34143 ft | 481 kts | 171° |
| 2026-05-07 11:42 | 33.57606 | 121.71384 | 34158 ft | 491 kts | 163° |
| 2026-05-07 11:42 | 33.51349 | 121.74631 | 34146 ft | 488 kts | 165° |
| 2026-05-07 11:43 | 33.45094 | 121.77783 | 34145 ft | 488 kts | 165° |
| 2026-05-07 11:43 | 33.38823 | 121.80874 | 34142 ft | 488 kts | 165° |
| 2026-05-07 11:44 | 33.32528 | 121.83948 | 34141 ft | 488 kts | 165° |
| 2026-05-07 11:44 | 33.26245 | 121.87003 | 34136 ft | 490 kts | 165° |
| 2026-05-07 11:45 | 33.19892 | 121.90086 | 34138 ft | 491 kts | 165° |
| 2026-05-07 11:45 | 33.13580 | 121.93145 | 34134 ft | 491 kts | 165° |
| 2026-05-07 11:46 | 33.07240 | 121.96210 | 34131 ft | 492 kts | 165° |
| 2026-05-07 11:46 | 33.00892 | 121.99277 | 34126 ft | 493 kts | 165° |
| 2026-05-07 11:47 | 32.94552 | 122.02335 | 34122 ft | 493 kts | 165° |
| 2026-05-07 11:47 | 32.88200 | 122.05396 | 34124 ft | 492 kts | 165° |
| 2026-05-07 11:48 | 32.81840 | 122.08450 | 34120 ft | 491 kts | 165° |
| 2026-05-07 11:48 | 32.75488 | 122.11499 | 34118 ft | 493 kts | 165° |
| 2026-05-07 11:49 | 32.69136 | 122.14545 | 34121 ft | 492 kts | 165° |
| 2026-05-07 11:49 | 32.62788 | 122.17583 | 34116 ft | 492 kts | 165° |
| 2026-05-07 11:50 | 32.56431 | 122.20622 | 34113 ft | 492 kts | 165° |
| 2026-05-07 11:50 | 32.50110 | 122.23638 | 34116 ft | 491 kts | 164° |
| 2026-05-07 11:51 | 32.43785 | 122.26651 | 34118 ft | 491 kts | 164° |
| 2026-05-07 11:51 | 32.37437 | 122.29667 | 34110 ft | 492 kts | 164° |
| 2026-05-07 11:52 | 32.31068 | 122.32690 | 34111 ft | 492 kts | 164° |
| 2026-05-07 11:52 | 32.24736 | 122.35694 | 34111 ft | 492 kts | 164° |
| 2026-05-07 11:53 | 32.18365 | 122.38712 | 34113 ft | 492 kts | 164° |
| 2026-05-07 11:53 | 32.12008 | 122.41717 | 34102 ft | 492 kts | 164° |
| 2026-05-07 11:54 | 32.05659 | 122.44714 | 34106 ft | 492 kts | 164° |
| 2026-05-07 11:54 | 31.99308 | 122.47710 | 34110 ft | 492 kts | 164° |
| 2026-05-07 11:55 | 31.92954 | 122.50702 | 34116 ft | 492 kts | 164° |
| 2026-05-07 11:55 | 31.86619 | 122.53680 | 34114 ft | 490 kts | 164° |
| 2026-05-07 11:56 | 31.80280 | 122.56657 | 34093 ft | 488 kts | 165° |
| 2026-05-07 11:56 | 31.77156 | 122.58123 | 33822 ft | 482 kts | 164° |
| 2026-05-07 11:56 | 31.74062 | 122.59571 | 33147 ft | 481 kts | 165° |
| 2026-05-07 11:56 | 31.70947 | 122.60952 | 32359 ft | 476 kts | 170° |
| 2026-05-07 11:57 | 31.67736 | 122.61514 | 31517 ft | 460 kts | 187° |
| 2026-05-07 11:57 | 31.64643 | 122.61030 | 30700 ft | 445 kts | 202° |
| 2026-05-07 11:57 | 31.61812 | 122.59643 | 29766 ft | 435 kts | 216° |
| 2026-05-07 11:57 | 31.59367 | 122.57626 | 28809 ft | 432 kts | 221° |
| 2026-05-07 11:58 | 31.56983 | 122.55512 | 27843 ft | 434 kts | 221° |
| 2026-05-07 11:58 | 31.54566 | 122.53378 | 26830 ft | 437 kts | 221° |
| 2026-05-07 11:58 | 31.52150 | 122.51257 | 25901 ft | 437 kts | 221° |
| 2026-05-07 11:58 | 31.49727 | 122.49146 | 25253 ft | 431 kts | 221° |
| 2026-05-07 11:59 | 31.47285 | 122.47111 | 24600 ft | 429 kts | 218° |
| 2026-05-07 11:59 | 31.44729 | 122.45324 | 23937 ft | 427 kts | 213° |
| 2026-05-07 11:59 | 31.42086 | 122.43806 | 23294 ft | 427 kts | 209° |
| 2026-05-07 11:59 | 31.39319 | 122.42499 | 22644 ft | 426 kts | 207° |
| 2026-05-07 12:00 | 31.36596 | 122.41277 | 22029 ft | 423 kts | 206° |
| 2026-05-07 12:00 | 31.33850 | 122.40050 | 21393 ft | 420 kts | 206° |
| 2026-05-07 12:00 | 31.31141 | 122.38844 | 20749 ft | 418 kts | 206° |
| 2026-05-07 12:00 | 31.28412 | 122.37631 | 20100 ft | 415 kts | 206° |
| 2026-05-07 12:01 | 31.25714 | 122.36431 | 19483 ft | 412 kts | 206° |
| 2026-05-07 12:01 | 31.23057 | 122.35249 | 18975 ft | 407 kts | 206° |
| 2026-05-07 12:01 | 31.20425 | 122.34080 | 18728 ft | 407 kts | 206° |
| 2026-05-07 12:01 | 31.17749 | 122.32890 | 18700 ft | 409 kts | 205° |
| 2026-05-07 12:02 | 31.15090 | 122.31709 | 18696 ft | 411 kts | 206° |
| 2026-05-07 12:02 | 31.12432 | 122.30532 | 18693 ft | 412 kts | 206° |
| 2026-05-07 12:02 | 31.09732 | 122.29334 | 18695 ft | 412 kts | 206° |
| 2026-05-07 12:02 | 31.07068 | 122.28152 | 18697 ft | 412 kts | 206° |
| 2026-05-07 12:03 | 31.04371 | 122.26957 | 18696 ft | 412 kts | 206° |
| 2026-05-07 12:03 | 31.01710 | 122.25780 | 18692 ft | 412 kts | 205° |
| 2026-05-07 12:03 | 30.98960 | 122.24689 | 18697 ft | 415 kts | 202° |
| 2026-05-07 12:03 | 30.96200 | 122.23750 | 18700 ft | 416 kts | 201° |
| 2026-05-07 12:04 | 30.93406 | 122.22819 | 18701 ft | 415 kts | 201° |
| 2026-05-07 12:04 | 30.90625 | 122.21892 | 18695 ft | 415 kts | 201° |
| 2026-05-07 12:04 | 30.87850 | 122.20967 | 18699 ft | 415 kts | 201° |
| 2026-05-07 12:04 | 30.85086 | 122.20047 | 18693 ft | 415 kts | 201° |
| 2026-05-07 12:05 | 30.82338 | 122.19007 | 18678 ft | 409 kts | 209° |
| 2026-05-07 12:05 | 30.79943 | 122.17281 | 18687 ft | 400 kts | 224° |
| 2026-05-07 12:05 | 30.78061 | 122.14951 | 18691 ft | 394 kts | 238° |
| 2026-05-07 12:05 | 30.76544 | 122.12305 | 18700 ft | 392 kts | 240° |
| 2026-05-07 12:06 | 30.75073 | 122.09657 | 18697 ft | 392 kts | 240° |
| 2026-05-07 12:06 | 30.73601 | 122.07004 | 18698 ft | 392 kts | 241° |
| 2026-05-07 12:06 | 30.72112 | 122.04333 | 18698 ft | 392 kts | 240° |
| 2026-05-07 12:06 | 30.70635 | 122.01691 | 18699 ft | 393 kts | 241° |
| 2026-05-07 12:07 | 30.69149 | 121.99040 | 18699 ft | 393 kts | 240° |
| 2026-05-07 12:07 | 30.67664 | 121.96391 | 18693 ft | 393 kts | 240° |
| 2026-05-07 12:07 | 30.66162 | 121.93717 | 18693 ft | 394 kts | 240° |
| 2026-05-07 12:07 | 30.64641 | 121.91014 | 18693 ft | 395 kts | 240° |
| 2026-05-07 12:08 | 30.63157 | 121.88378 | 18699 ft | 395 kts | 240° |
| 2026-05-07 12:08 | 30.61634 | 121.85674 | 18698 ft | 394 kts | 240° |
| 2026-05-07 12:08 | 30.60141 | 121.83028 | 18689 ft | 393 kts | 240° |
| 2026-05-07 12:08 | 30.58645 | 121.80381 | 18450 ft | 387 kts | 240° |
| 2026-05-07 12:09 | 30.57175 | 121.77776 | 17832 ft | 385 kts | 240° |
| 2026-05-07 12:09 | 30.55712 | 121.75182 | 17136 ft | 385 kts | 240° |
| 2026-05-07 12:09 | 30.54268 | 121.72626 | 16515 ft | 382 kts | 240° |
| 2026-05-07 12:09 | 30.52804 | 121.70037 | 15909 ft | 379 kts | 240° |
| 2026-05-07 12:10 | 30.51385 | 121.67532 | 15352 ft | 375 kts | 239° |
| 2026-05-07 12:10 | 30.49954 | 121.65006 | 14883 ft | 372 kts | 239° |
| 2026-05-07 12:10 | 30.48537 | 121.62505 | 14400 ft | 370 kts | 239° |
| 2026-05-07 12:10 | 30.47128 | 121.60020 | 13934 ft | 368 kts | 239° |
| 2026-05-07 12:11 | 30.45740 | 121.57575 | 13463 ft | 365 kts | 239° |
| 2026-05-07 12:11 | 30.44357 | 121.55139 | 12986 ft | 363 kts | 239° |
| 2026-05-07 12:11 | 30.42968 | 121.52694 | 12512 ft | 362 kts | 239° |
| 2026-05-07 12:11 | 30.41591 | 121.50272 | 12036 ft | 360 kts | 239° |
| 2026-05-07 12:12 | 30.40210 | 121.47847 | 11546 ft | 359 kts | 239° |
| 2026-05-07 12:12 | 30.38832 | 121.45425 | 11064 ft | 359 kts | 239° |
| 2026-05-07 12:12 | 30.37467 | 121.43030 | 10570 ft | 357 kts | 238° |
| 2026-05-07 12:12 | 30.36108 | 121.40644 | 10088 ft | 352 kts | 238° |
| 2026-05-07 12:13 | 30.34784 | 121.38317 | 9801 ft | 340 kts | 238° |
| 2026-05-07 12:13 | 30.33539 | 121.36119 | 9780 ft | 321 kts | 238° |
| 2026-05-07 12:13 | 30.32336 | 121.33992 | 9779 ft | 303 kts | 238° |
| 2026-05-07 12:13 | 30.31228 | 121.32033 | 9778 ft | 287 kts | 238° |
| 2026-05-07 12:14 | 30.30142 | 121.30109 | 9779 ft | 283 kts | 238° |
| 2026-05-07 12:14 | 30.29103 | 121.28271 | 9780 ft | 283 kts | 238° |
| 2026-05-07 12:14 | 30.28013 | 121.26343 | 9779 ft | 284 kts | 238° |
| 2026-05-07 12:14 | 30.26928 | 121.24425 | 9782 ft | 284 kts | 238° |
| 2026-05-07 12:15 | 30.25843 | 121.22545 | 9787 ft | 284 kts | 237° |
| 2026-05-07 12:15 | 30.24690 | 121.20683 | 9784 ft | 285 kts | 234° |
| 2026-05-07 12:15 | 30.23503 | 121.18836 | 9788 ft | 285 kts | 234° |
| 2026-05-07 12:15 | 30.22315 | 121.16986 | 9788 ft | 285 kts | 234° |
| 2026-05-07 12:16 | 30.21136 | 121.15145 | 9792 ft | 286 kts | 235° |
| 2026-05-07 12:16 | 30.19950 | 121.13299 | 9795 ft | 286 kts | 235° |
| 2026-05-07 12:16 | 30.18771 | 121.11460 | 9792 ft | 286 kts | 234° |
| 2026-05-07 12:16 | 30.17590 | 121.09621 | 9793 ft | 287 kts | 234° |
| 2026-05-07 12:17 | 30.16390 | 121.07755 | 9793 ft | 287 kts | 234° |
| 2026-05-07 12:17 | 30.15202 | 121.05905 | 9791 ft | 287 kts | 234° |
| 2026-05-07 12:17 | 30.14016 | 121.04063 | 9796 ft | 287 kts | 234° |
| 2026-05-07 12:17 | 30.12819 | 121.02204 | 9793 ft | 287 kts | 234° |
| 2026-05-07 12:18 | 30.11631 | 121.00361 | 9795 ft | 287 kts | 234° |
| 2026-05-07 12:18 | 30.10443 | 120.98516 | 9795 ft | 288 kts | 234° |
| 2026-05-07 12:18 | 30.09248 | 120.96664 | 9800 ft | 288 kts | 234° |
| 2026-05-07 12:18 | 30.08049 | 120.94801 | 9800 ft | 288 kts | 234° |
| 2026-05-07 12:19 | 30.06853 | 120.92931 | 9722 ft | 289 kts | 234° |
| 2026-05-07 12:19 | 30.05664 | 120.91076 | 9598 ft | 288 kts | 234° |
| 2026-05-07 12:19 | 30.04493 | 120.89216 | 9476 ft | 286 kts | 239° |
| 2026-05-07 12:19 | 30.03654 | 120.87128 | 9346 ft | 284 kts | 254° |
| 2026-05-07 12:20 | 30.03327 | 120.84894 | 9219 ft | 284 kts | 269° |
| 2026-05-07 12:20 | 30.03500 | 120.82652 | 9101 ft | 283 kts | 283° |
| 2026-05-07 12:20 | 30.04121 | 120.80498 | 8987 ft | 283 kts | 292° |
| 2026-05-07 12:20 | 30.04870 | 120.78394 | 8870 ft | 281 kts | 293° |
| 2026-05-07 12:21 | 30.05620 | 120.76329 | 8746 ft | 281 kts | 293° |
| 2026-05-07 12:21 | 30.06367 | 120.74251 | 8611 ft | 281 kts | 293° |
| 2026-05-07 12:21 | 30.07113 | 120.72163 | 8479 ft | 281 kts | 293° |
| 2026-05-07 12:21 | 30.07847 | 120.70094 | 8371 ft | 280 kts | 293° |
| 2026-05-07 12:22 | 30.08583 | 120.68009 | 8246 ft | 279 kts | 293° |
| 2026-05-07 12:22 | 30.09313 | 120.65937 | 8102 ft | 279 kts | 293° |
| 2026-05-07 12:22 | 30.10040 | 120.63870 | 7974 ft | 279 kts | 293° |
| 2026-05-07 12:22 | 30.10770 | 120.61789 | 7833 ft | 277 kts | 293° |
| 2026-05-07 12:23 | 30.11486 | 120.59744 | 7694 ft | 277 kts | 293° |
| 2026-05-07 12:23 | 30.12214 | 120.57669 | 7559 ft | 274 kts | 293° |
| 2026-05-07 12:23 | 30.12913 | 120.55671 | 7369 ft | 265 kts | 294° |
| 2026-05-07 12:23 | 30.13596 | 120.53723 | 7270 ft | 254 kts | 294° |
| 2026-05-07 12:24 | 30.14243 | 120.51874 | 7133 ft | 243 kts | 293° |
| 2026-05-07 12:24 | 30.14586 | 120.50010 | 7011 ft | 237 kts | 266° |
| 2026-05-07 12:24 | 30.14066 | 120.48241 | 6865 ft | 231 kts | 244° |
| 2026-05-07 12:24 | 30.13319 | 120.46652 | 6728 ft | 222 kts | 244° |
| 2026-05-07 12:25 | 30.12593 | 120.45092 | 6596 ft | 217 kts | 245° |
| 2026-05-07 12:25 | 30.11897 | 120.43570 | 6476 ft | 217 kts | 245° |
| 2026-05-07 12:25 | 30.11194 | 120.42014 | 6366 ft | 217 kts | 245° |
| 2026-05-07 12:25 | 30.10502 | 120.40475 | 6244 ft | 217 kts | 246° |
| 2026-05-07 12:26 | 30.09809 | 120.38921 | 6128 ft | 217 kts | 246° |
| 2026-05-07 12:26 | 30.09121 | 120.37380 | 6010 ft | 217 kts | 246° |
| 2026-05-07 12:26 | 30.08424 | 120.35822 | 5932 ft | 217 kts | 246° |
| 2026-05-07 12:26 | 30.07733 | 120.34272 | 5798 ft | 217 kts | 246° |
| 2026-05-07 12:27 | 30.07046 | 120.32735 | 5668 ft | 217 kts | 246° |
| 2026-05-07 12:27 | 30.06350 | 120.31180 | 5559 ft | 217 kts | 246° |
| 2026-05-07 12:27 | 30.05660 | 120.29632 | 5445 ft | 217 kts | 246° |
| 2026-05-07 12:27 | 30.04970 | 120.28091 | 5329 ft | 216 kts | 246° |
| 2026-05-07 12:28 | 30.04278 | 120.26548 | 5228 ft | 215 kts | 246° |
| 2026-05-07 12:28 | 30.03593 | 120.25017 | 5115 ft | 214 kts | 246° |
| 2026-05-07 12:28 | 30.02956 | 120.23456 | 4980 ft | 212 kts | 260° |
| 2026-05-07 12:28 | 30.02929 | 120.21839 | 4786 ft | 201 kts | 292° |
| 2026-05-07 12:29 | 30.03675 | 120.20546 | 4571 ft | 191 kts | 327° |
| 2026-05-07 12:29 | 30.04811 | 120.19803 | 4377 ft | 190 kts | 337° |
| 2026-05-07 12:29 | 30.06023 | 120.19154 | 4145 ft | 189 kts | 338° |
| 2026-05-07 12:29 | 30.07204 | 120.18509 | 3907 ft | 187 kts | 337° |
| 2026-05-07 12:30 | 30.08402 | 120.17951 | 3652 ft | 184 kts | 353° |
| 2026-05-07 12:30 | 30.09653 | 120.18070 | 3388 ft | 182 kts | 21° |
| 2026-05-07 12:30 | 30.10729 | 120.18839 | 3162 ft | 183 kts | 34° |
| 2026-05-07 12:30 | 30.11713 | 120.19763 | 2981 ft | 182 kts | 39° |
| 2026-05-07 12:31 | 30.12584 | 120.20808 | 3029 ft | 177 kts | 46° |
| 2026-05-07 12:31 | 30.13272 | 120.21932 | 2988 ft | 162 kts | 52° |
| 2026-05-07 12:31 | 30.13819 | 120.22988 | 2934 ft | 146 kts | 54° |
| 2026-05-07 12:31 | 30.14306 | 120.23988 | 2922 ft | 141 kts | 55° |
| 2026-05-07 12:32 | 30.14774 | 120.24984 | 2987 ft | 141 kts | 55° |
| 2026-05-07 12:32 | 30.15235 | 120.25993 | 2895 ft | 141 kts | 56° |
| 2026-05-07 12:32 | 30.15682 | 120.26992 | 2706 ft | 140 kts | 56° |
| 2026-05-07 12:32 | 30.16128 | 120.27998 | 2532 ft | 139 kts | 57° |
| 2026-05-07 12:33 | 30.17005 | 120.29991 | 2188 ft | 139 kts | 57° |
| 2026-05-07 12:33 | 30.17441 | 120.30983 | 2014 ft | 138 kts | 57° |
| 2026-05-07 12:33 | 30.17874 | 120.31968 | 1841 ft | 138 kts | 57° |
| 2026-05-07 12:34 | 30.18311 | 120.32959 | 1659 ft | 138 kts | 57° |
| 2026-05-07 12:34 | 30.18746 | 120.33947 | 1472 ft | 137 kts | 56° |
| 2026-05-07 12:34 | 30.19179 | 120.34926 | 1295 ft | 137 kts | 57° |
| 2026-05-07 12:34 | 30.19604 | 120.35900 | 1119 ft | 136 kts | 58° |
| 2026-05-07 12:35 | 30.20040 | 120.36877 | 948 ft | 136 kts | 57° |
| 2026-05-07 12:35 | 30.20472 | 120.37846 | 767 ft | 136 kts | 57° |
| 2026-05-07 12:35 | 30.20903 | 120.38821 | 594 ft | 135 kts | 58° |
| 2026-05-07 12:35 | 30.21328 | 120.39789 | 407 ft | 135 kts | 56° |
| 2026-05-07 12:36 | 30.21760 | 120.40755 | 289 ft | 135 kts | 57° |
| 2026-05-07 12:36 | 30.22167 | 120.41712 | 133 ft | 132 kts | 58° |
| 2026-05-07 12:36 | 30.22591 | 120.42660 | 51 ft | 132 kts | 57° |
| 2026-05-07 12:36 | 30.22986 | 120.43504 | 29 ft | 100 kts | 59° |
| 2026-05-07 12:37 | 30.23223 | 120.44044 | 29 ft | 50 kts | 59° |
| 2026-05-07 12:37 | 30.23330 | 120.44280 | 29 ft | 28 kts | 59° |
| 2026-05-07 12:37 | 30.23424 | 120.44468 | 29 ft | 25 kts | 71° |
| 2026-05-07 12:37 | 30.23493 | 120.44651 | 29 ft | 24 kts | 61° |
| 2026-05-07 12:38 | 30.23561 | 120.44796 | 29 ft | 7 kts | 59° |
| 2026-05-07 12:38 | 30.23590 | 120.44853 | 29 ft | 8 kts | 60° |
| 2026-05-07 12:38 | 30.23630 | 120.44880 | 29 ft | 7 kts | 359° |
| 2026-05-07 12:38 | 30.23682 | 120.44864 | 29 ft | 8 kts | 331° |
| 2026-05-07 12:39 | 30.23728 | 120.44822 | 29 ft | 8 kts | 302° |
| 2026-05-07 12:39 | 30.23731 | 120.44756 | 28 ft | 8 kts | 245° |
| 2026-05-07 12:39 | 30.23699 | 120.44692 | 29 ft | 9 kts | 237° |
| 2026-05-07 12:39 | 30.23664 | 120.44621 | 29 ft | 10 kts | 245° |
| 2026-05-07 12:40 | 30.23632 | 120.44538 | 28 ft | 11 kts | 246° |
| 2026-05-07 12:40 | 30.23597 | 120.44452 | 29 ft | 12 kts | 241° |
| 2026-05-07 12:40 | 30.23553 | 120.44366 | 28 ft | 12 kts | 242° |
| 2026-05-07 12:40 | 30.23511 | 120.44273 | 28 ft | 13 kts | 242° |
| 2026-05-07 12:41 | 30.23467 | 120.44175 | 28 ft | 14 kts | 243° |
| 2026-05-07 12:41 | 30.23429 | 120.44087 | 29 ft | 7 kts | 243° |
| 2026-05-07 12:41 | 30.23410 | 120.44030 | 29 ft | 7 kts | 266° |
| 2026-05-07 12:41 | 30.23443 | 120.43983 | 29 ft | 8 kts | 335° |
| 2026-05-07 12:42 | 30.23500 | 120.43951 | 28 ft | 9 kts | 332° |
| 2026-05-07 12:42 | 30.23568 | 120.43912 | 29 ft | 13 kts | 333° |
| 2026-05-07 12:42 | 30.23668 | 120.43853 | 28 ft | 18 kts | 332° |
| 2026-05-07 12:42 | 30.23793 | 120.43780 | 29 ft | 22 kts | 334° |
| 2026-05-07 12:43 | 30.23942 | 120.43691 | 29 ft | 25 kts | 332° |
| 2026-05-07 12:43 | 30.24075 | 120.43613 | 29 ft | 21 kts | 332° |
| 2026-05-07 12:43 | 30.24220 | 120.43527 | 29 ft | 25 kts | 332° |
| 2026-05-07 12:43 | 30.24363 | 120.43444 | 29 ft | 21 kts | 333° |
| 2026-05-07 12:44 | 30.24485 | 120.43372 | 29 ft | 9 kts | 331° |
| 2026-05-07 12:44 | 30.24535 | 120.43322 | 29 ft | 10 kts | 281° |
| 2026-05-07 12:44 | 30.24504 | 120.43240 | 29 ft | 12 kts | 243° |
| 2026-05-07 12:44 | 30.24462 | 120.43144 | 29 ft | 14 kts | 242° |
| 2026-05-07 12:45 | 30.24414 | 120.43035 | 29 ft | 16 kts | 243° |
| 2026-05-07 12:45 | 30.24360 | 120.42914 | 29 ft | 17 kts | 242° |
| 2026-05-07 12:45 | 30.24308 | 120.42808 | 29 ft | 10 kts | 227° |
| 2026-05-07 12:45 | 30.24232 | 120.42818 | 29 ft | 13 kts | 150° |
| 2026-05-07 12:46 | 30.24149 | 120.42867 | 29 ft | 7 kts | 152° |
| 2026-05-07 12:46 | 30.24107 | 120.42857 | 29 ft | 2 kts | 236° |
| 2026-05-07 12:46 | 30.24094 | 120.42832 | 29 ft | 4 kts | 239° |
| 2026-05-07 12:46 | 30.24091 | 120.42827 | 29 ft | 0 kts | 241° |